Time;durP1;ratioP1;P1;durP2;ratioP2;P2;SDS_P1;SDS_P2;PMS_P1;PMS_P2;Temp;Humidity;BMP_temperature;BMP_pressure;BME280_temperature;BME280_humidity;BME280_pressure;Samples;Min_cycle;Max_cycle;Signal;HPM_P1;HPM_P2
2021/07/01 00:01:13;;;;;;;20.37;18.37;;;;;;;26.30;73.84;94463.28;5073603;28;20524;-79
2021/07/01 00:03:40;;;;;;;21.37;19.20;;;;;;;26.29;73.70;94452.78;5073048;28;20490;-79
2021/07/01 00:06:09;;;;;;;22.40;18.60;;;;;;;26.28;73.99;94464.59;5072889;28;20531;-79
2021/07/01 00:08:36;;;;;;;35.07;21.43;;;;;;;26.24;74.49;94458.88;5073349;28;20477;-78
2021/07/01 00:11:03;;;;;;;24.80;20.47;;;;;;;25.80;77.24;94457.66;5073286;28;20533;-79
2021/07/01 00:13:30;;;;;;;31.90;21.43;;;;;;;25.85;77.11;94466.66;5073345;28;20453;-78
2021/07/01 00:15:58;;;;;;;33.23;21.60;;;;;;;25.72;78.08;94450.75;5021556;28;20531;-79
2021/07/01 00:18:24;;;;;;;29.13;21.40;;;;;;;25.72;78.16;94461.50;5073451;28;20452;-79
2021/07/01 00:20:51;;;;;;;31.00;21.37;;;;;;;25.74;77.90;94454.03;5073327;28;20452;-79
2021/07/01 00:23:20;;;;;;;22.20;19.40;;;;;;;25.77;77.89;94468.88;5073255;28;20584;-79
2021/07/01 00:25:47;;;;;;;27.73;19.40;;;;;;;25.76;79.01;94478.81;5072958;28;20880;-79
2021/07/01 00:28:14;;;;;;;23.27;20.57;;;;;;;25.45;80.70;94439.63;5073047;28;20433;-78
2021/07/01 00:30:41;;;;;;;24.60;21.50;;;;;;;25.25;82.53;94460.63;5073030;28;20533;-79
2021/07/01 00:33:08;;;;;;;25.37;21.40;;;;;;;25.30;82.07;94461.56;5076660;28;20519;-79
2021/07/01 00:35:35;;;;;;;25.70;21.53;;;;;;;25.38;81.81;94451.53;5077261;28;20479;-78
2021/07/01 00:38:02;;;;;;;29.97;22.30;;;;;;;25.40;81.92;94465.53;5076923;28;20521;-78
2021/07/01 00:40:30;;;;;;;32.20;22.30;;;;;;;25.32;82.11;94450.59;5076433;28;20452;-78
2021/07/01 00:42:57;;;;;;;26.70;21.37;;;;;;;25.35;81.87;94473.47;5076886;28;20484;-78
2021/07/01 00:45:24;;;;;;;23.10;20.80;;;;;;;25.35;82.21;94455.50;5077083;28;20459;-79
2021/07/01 00:47:51;;;;;;;22.60;20.13;;;;;;;25.37;82.58;94466.00;5076516;28;20446;-79
2021/07/01 00:50:18;;;;;;;22.50;20.00;;;;;;;25.40;81.89;94468.22;5076736;28;20454;-79
2021/07/01 00:52:45;;;;;;;24.63;21.57;;;;;;;25.42;81.51;94450.00;5076369;28;20441;-79
2021/07/01 00:55:14;;;;;;;23.50;19.70;;;;;;;25.42;81.62;94452.69;5076914;28;20614;-79
2021/07/01 00:57:42;;;;;;;23.37;20.97;;;;;;;25.44;81.47;94461.34;5076618;28;20806;-80
2021/07/01 01:00:23;;;;;;;22.43;20.17;;;;;;;25.43;82.46;94435.53;5076411;28;20539;-78
2021/07/01 01:02:53;;;;;;;26.13;20.27;;;;;;;25.37;83.63;94463.31;5076374;28;20484;-79
2021/07/01 01:05:20;;;;;;;24.97;21.90;;;;;;;25.15;83.42;94445.06;5076277;28;20474;-79
2021/07/01 01:07:47;;;;;;;20.87;18.77;;;;;;;25.12;83.35;94467.00;5076029;28;20781;-79
2021/07/01 01:10:14;;;;;;;25.70;20.07;;;;;;;25.05;83.92;94444.00;5076565;28;20539;-78
2021/07/01 01:12:43;;;;;;;21.20;18.87;;;;;;;25.05;82.73;94468.97;5076071;28;20448;-78
2021/07/01 01:15:11;;;;;;;21.97;19.87;;;;;;;24.98;83.61;94460.19;5076245;28;20923;-79
2021/07/01 01:17:38;;;;;;;20.73;18.63;;;;;;;25.07;83.21;94469.56;5007986;28;20527;-79
2021/07/01 01:20:06;;;;;;;25.10;20.20;;;;;;;25.13;83.99;94479.38;5076052;28;20451;-79
2021/07/01 01:22:35;;;;;;;24.37;19.00;;;;;;;25.14;82.80;94470.28;5040947;28;20997;-79
2021/07/01 01:25:02;;;;;;;23.43;19.53;;;;;;;25.24;82.74;94472.41;5076133;28;20515;-79
2021/07/01 01:27:29;;;;;;;22.83;20.07;;;;;;;25.29;83.38;94464.47;5075684;28;20451;-79
2021/07/01 01:29:55;;;;;;;24.87;19.10;;;;;;;25.35;82.87;94476.97;5040271;28;20451;-79
2021/07/01 01:32:22;;;;;;;32.07;20.40;;;;;;;25.43;82.75;94483.88;5076451;28;20516;-79
2021/07/01 01:34:49;;;;;;;28.43;20.73;;;;;;;25.47;82.78;94474.34;5075830;28;20524;-78
2021/07/01 01:37:16;;;;;;;25.47;20.27;;;;;;;25.50;83.08;94466.63;5075673;28;20429;-78
2021/07/01 01:39:48;;;;;;;26.63;19.10;;;;;;;25.55;82.98;94471.28;5075737;28;20458;-79
2021/07/01 01:42:15;;;;;;;21.13;18.27;;;;;;;25.52;82.58;94475.28;5024201;28;20451;-79
2021/07/01 01:44:42;;;;;;;22.70;18.83;;;;;;;25.35;81.31;94476.16;5075010;28;20509;-79
2021/07/01 01:47:15;;;;;;;19.70;17.70;;;;;;;25.33;80.50;94463.78;5075388;28;20804;-79
2021/07/01 01:49:45;;;;;;;19.17;17.10;;;;;;;25.17;81.17;94494.00;5075470;28;20455;-79
2021/07/01 01:52:11;;;;;;;21.07;18.20;;;;;;;25.08;82.22;94490.00;5075343;28;21056;-79
2021/07/01 01:54:38;;;;;;;24.97;17.47;;;;;;;24.96;82.70;94478.38;5075562;28;20485;-79
2021/07/01 01:57:07;;;;;;;20.40;16.53;;;;;;;24.99;82.50;94494.06;5075648;28;20531;-79
2021/07/01 01:59:34;;;;;;;20.47;16.97;;;;;;;24.99;82.39;94489.50;5074975;28;20451;-79
2021/07/01 02:02:01;;;;;;;22.10;16.90;;;;;;;24.93;82.39;94486.91;5075529;28;20514;-79
2021/07/01 02:04:28;;;;;;;23.50;18.33;;;;;;;24.98;82.90;94484.34;5075676;28;20471;-78
2021/07/01 02:06:55;;;;;;;22.90;18.80;;;;;;;25.01;82.67;94500.03;5075250;28;20450;-78
2021/07/01 02:09:22;;;;;;;20.30;18.23;;;;;;;24.99;82.73;94481.47;5075159;28;20459;-78
2021/07/01 02:11:50;;;;;;;20.57;18.30;;;;;;;24.77;84.24;94493.72;5075607;28;20451;-79
2021/07/01 02:14:18;;;;;;;27.00;18.57;;;;;;;24.79;84.12;94496.16;5075069;28;20527;-79
2021/07/01 02:16:45;;;;;;;25.07;17.97;;;;;;;24.79;83.70;94480.88;5074792;28;20482;-79
2021/07/01 02:19:12;;;;;;;21.20;16.63;;;;;;;24.85;83.90;94488.03;5075168;28;20526;-79
2021/07/01 02:21:39;;;;;;;19.70;17.63;;;;;;;24.89;83.38;94505.34;5074691;28;20539;-79
2021/07/01 02:24:06;;;;;;;18.70;16.50;;;;;;;24.91;82.25;94494.38;5074853;28;20922;-79
2021/07/01 02:26:33;;;;;;;24.80;16.17;;;;;;;24.95;81.90;94503.59;5074818;28;20939;-79
2021/07/01 02:29:00;;;;;;;17.67;15.60;;;;;;;24.97;81.34;94501.50;5074911;28;20523;-79
2021/07/01 02:31:29;;;;;;;18.53;16.63;;;;;;;24.98;80.49;94508.50;5074654;28;20451;-78
2021/07/01 02:33:55;;;;;;;18.97;17.00;;;;;;;24.96;80.12;94518.66;5039431;28;20479;-78
2021/07/01 02:36:22;;;;;;;17.90;16.10;;;;;;;24.99;79.75;94510.19;5074486;28;20941;-78
2021/07/01 02:38:49;;;;;;;30.20;18.90;;;;;;;24.99;79.73;94518.22;5074488;28;20446;-79
2021/07/01 02:41:16;;;;;;;20.10;16.57;;;;;;;24.97;78.83;94510.38;5074721;28;20520;-79
2021/07/01 02:43:43;;;;;;;30.10;18.40;;;;;;;24.97;79.29;94512.25;5074244;28;20947;-79
2021/07/01 02:46:10;;;;;;;20.00;17.07;;;;;;;24.92;78.53;94510.25;5074267;28;20448;-78
2021/07/01 02:48:38;;;;;;;28.10;16.30;;;;;;;24.94;78.79;94512.69;5074680;28;20547;-79
2021/07/01 02:51:05;;;;;;;23.90;16.20;;;;;;;24.92;78.16;94512.09;5074296;28;20451;-78
2021/07/01 02:53:32;;;;;;;25.40;17.00;;;;;;;24.87;78.60;94520.84;5074515;28;20505;-79
2021/07/01 02:55:59;;;;;;;21.77;16.80;;;;;;;24.83;78.14;94521.50;5073640;28;20454;-79
2021/07/01 02:58:26;;;;;;;20.30;15.17;;;;;;;24.83;77.31;94518.81;5038972;28;20815;-79
2021/07/01 03:00:53;;;;;;;24.37;14.90;;;;;;;24.80;77.48;94528.16;5074345;28;20459;-79
2021/07/01 03:03:20;;;;;;;21.33;15.07;;;;;;;24.84;77.48;94523.13;5073963;28;20486;-78
2021/07/01 03:05:48;;;;;;;19.60;16.20;;;;;;;24.84;77.27;94544.63;5022584;28;20448;-79
2021/07/01 03:08:15;;;;;;;18.70;15.37;;;;;;;24.82;76.68;94546.72;5074124;28;20528;-79
2021/07/01 03:10:42;;;;;;;17.40;15.23;;;;;;;24.78;77.24;94540.97;5073922;28;20448;-80
2021/07/01 03:13:09;;;;;;;18.50;15.17;;;;;;;24.80;76.67;94554.16;5074282;28;20664;-80
2021/07/01 03:15:36;;;;;;;23.43;17.53;;;;;;;24.77;76.70;94544.72;5074622;28;20534;-80
2021/07/01 03:18:03;;;;;;;20.60;15.50;;;;;;;24.77;76.67;94555.44;5073977;28;20514;-80
2021/07/01 03:20:30;;;;;;;20.33;14.80;;;;;;;24.77;77.17;94558.13;5073534;28;20449;-78
2021/07/01 03:22:58;;;;;;;22.33;16.57;;;;;;;24.79;77.28;94564.09;5073638;28;20877;-78
2021/07/01 03:25:25;;;;;;;27.33;15.87;;;;;;;24.84;77.05;94566.09;5073675;28;20458;-78
2021/07/01 03:27:52;;;;;;;19.77;16.37;;;;;;;24.90;80.73;94570.56;5073799;28;20435;-79
2021/07/01 03:30:21;;;;;;;24.37;15.50;;;;;;;25.00;80.91;94570.88;5073240;28;20530;-78
2021/07/01 03:32:47;;;;;;;18.57;15.30;;;;;;;25.07;78.83;94576.97;5073530;28;20448;-79
2021/07/01 03:35:14;;;;;;;17.43;14.20;;;;;;;25.17;77.81;94571.91;5073870;28;20520;-80
2021/07/01 03:37:41;;;;;;;21.20;14.70;;;;;;;25.34;79.92;94577.44;5073202;28;20433;-79
2021/07/01 03:40:11;;;;;;;20.93;15.27;;;;;;;25.47;82.11;94579.13;5073645;28;20515;-78
2021/07/01 03:42:38;;;;;;;25.17;14.80;;;;;;;25.71;82.70;94585.38;5073341;28;20519;-79
2021/07/01 03:45:06;;;;;;;19.10;14.93;;;;;;;25.87;81.80;94584.72;5073561;28;20480;-78
2021/07/01 03:47:34;;;;;;;18.43;15.03;;;;;;;26.06;79.17;94575.50;5073338;28;20923;-77
2021/07/01 03:50:01;;;;;;;19.00;14.63;;;;;;;26.27;74.50;94579.47;5073206;28;20448;-77
2021/07/01 03:52:28;;;;;;;21.67;16.00;;;;;;;26.50;78.04;94586.72;5073344;28;20809;-77
2021/07/01 03:54:55;;;;;;;20.20;14.20;;;;;;;26.75;80.32;94581.06;5073313;28;20471;-78
2021/07/01 03:57:23;;;;;;;21.20;14.67;;;;;;;26.93;73.97;94591.69;5038194;28;20755;-79
2021/07/01 03:59:50;;;;;;;22.20;14.63;;;;;;;27.19;77.98;94578.75;5038061;28;20444;-78
2021/07/01 04:02:17;;;;;;;15.73;13.87;;;;;;;27.31;69.04;94588.41;5072914;28;20487;-78
2021/07/01 04:04:44;;;;;;;20.30;13.60;;;;;;;27.44;67.61;94584.59;5072863;28;21041;-78
2021/07/01 04:07:11;;;;;;;17.20;12.90;;;;;;;27.54;70.21;94574.03;5072840;28;20539;-78
2021/07/01 04:09:37;;;;;;;15.00;13.00;;;;;;;27.68;69.37;94569.16;5073012;28;20847;-78
2021/07/01 04:12:05;;;;;;;20.40;14.77;;;;;;;27.73;66.25;94564.66;5073269;28;20528;-82
2021/07/01 04:14:34;;;;;;;18.70;14.17;;;;;;;27.77;65.02;94565.81;5073168;28;20520;-79
2021/07/01 04:17:01;;;;;;;17.23;15.13;;;;;;;27.81;65.63;94559.94;5073202;28;20861;-80
2021/07/01 04:19:28;;;;;;;18.10;16.30;;;;;;;27.97;67.24;94564.50;5073253;28;20448;-81
2021/07/01 04:21:55;;;;;;;25.63;15.83;;;;;;;28.06;65.83;94573.84;5073591;28;20784;-81
2021/07/01 04:24:22;;;;;;;22.43;16.27;;;;;;;28.25;66.41;94566.31;5072834;28;20576;-80
2021/07/01 04:26:49;;;;;;;19.43;15.80;;;;;;;28.36;65.32;94568.13;5072755;28;20512;-80
2021/07/01 04:29:16;;;;;;;20.53;15.87;;;;;;;28.57;66.73;94569.19;5072525;28;20535;-79
2021/07/01 04:31:44;;;;;;;19.57;16.77;;;;;;;28.83;66.62;94565.75;5072543;28;20455;-78
2021/07/01 04:34:11;;;;;;;21.50;17.37;;;;;;;29.11;67.58;94553.97;5072931;28;20515;-80
2021/07/01 04:36:38;;;;;;;23.93;17.53;;;;;;;29.37;65.51;94555.06;5071837;28;20935;-78
2021/07/01 04:39:05;;;;;;;22.57;17.30;;;;;;;29.63;65.57;94555.34;5071848;28;20522;-79
2021/07/01 04:41:32;;;;;;;23.27;16.87;;;;;;;29.73;60.83;94553.53;5071679;28;20459;-78
2021/07/01 04:43:59;;;;;;;20.77;18.50;;;;;;;29.86;62.23;94550.41;5079404;28;20516;-79
2021/07/01 04:46:26;;;;;;;22.40;15.70;;;;;;;29.98;59.74;94558.34;5071752;28;20444;-80
2021/07/01 04:48:54;;;;;;;17.33;15.50;;;;;;;30.13;62.10;94554.97;5071837;28;20527;-80
2021/07/01 04:51:21;;;;;;;21.80;15.80;;;;;;;30.36;62.09;94553.75;5071959;28;20890;-79
2021/07/01 04:53:48;;;;;;;19.73;16.30;;;;;;;30.54;60.00;94545.22;5071543;28;20487;-79
2021/07/01 04:56:15;;;;;;;20.20;14.50;;;;;;;30.74;58.47;94550.78;5021482;28;20807;-79
2021/07/01 04:58:42;;;;;;;17.83;13.97;;;;;;;30.93;61.72;94553.00;5021143;28;20447;-79
2021/07/01 05:01:09;;;;;;;23.20;16.07;;;;;;;31.01;57.51;94556.03;5072712;28;20824;-80
2021/07/01 05:03:36;;;;;;;17.97;15.03;;;;;;;31.04;54.98;94554.69;5072224;28;20527;-78
2021/07/01 05:06:05;;;;;;;23.67;15.00;;;;;;;31.05;55.40;94553.63;5072937;28;20447;-77
2021/07/01 05:08:32;;;;;;;20.03;14.30;;;;;;;31.14;53.83;94568.28;5072918;28;20453;-79
2021/07/01 05:10:59;;;;;;;16.00;14.27;;;;;;;31.10;53.98;94559.88;5072417;28;20467;-78
2021/07/01 05:13:26;;;;;;;24.33;14.70;;;;;;;31.10;54.17;94559.03;5036813;28;20439;-78
2021/07/01 05:15:53;;;;;;;21.37;14.60;;;;;;;31.21;53.42;94563.44;5072555;28;20481;-78
2021/07/01 05:18:20;;;;;;;23.90;14.90;;;;;;;31.26;53.31;94554.53;5073253;28;20803;-78
2021/07/01 05:20:47;;;;;;;24.97;14.90;;;;;;;31.34;53.17;94548.59;5024491;28;20437;-78
2021/07/01 05:23:15;;;;;;;25.67;14.83;;;;;;;31.44;53.21;94552.13;5076412;28;20441;-78
2021/07/01 05:25:42;;;;;;;35.57;14.70;;;;;;;31.54;52.62;94551.34;5075690;28;20482;-79
2021/07/01 05:28:11;;;;;;;30.93;14.30;;;;;;;31.69;52.77;94555.97;5075925;28;20839;-79
2021/07/01 05:30:38;;;;;;;27.33;16.67;;;;;;;31.80;52.97;94543.22;5075824;28;20456;-79
2021/07/01 05:33:05;;;;;;;22.90;14.10;;;;;;;31.95;52.89;94541.34;5075658;28;20455;-78
2021/07/01 05:35:32;;;;;;;19.00;14.17;;;;;;;32.10;52.18;94547.88;5023833;28;20467;-78
2021/07/01 05:37:59;;;;;;;17.60;14.73;;;;;;;32.24;51.55;94546.22;5023750;28;20831;-77
2021/07/01 05:40:28;;;;;;;26.73;16.67;;;;;;;32.42;51.66;94536.72;5075423;28;20436;-78
2021/07/01 05:42:55;;;;;;;22.00;14.03;;;;;;;32.69;51.09;94541.81;5040216;28;21000;-78
2021/07/01 05:45:22;;;;;;;19.20;14.00;;;;;;;32.86;50.96;94543.13;5075591;28;20480;-78
2021/07/01 05:47:48;;;;;;;15.97;13.07;;;;;;;33.04;49.92;94530.84;5075279;28;20456;-79
2021/07/01 05:50:16;;;;;;;17.47;13.50;;;;;;;33.22;49.99;94532.91;5075122;28;20531;-79
2021/07/01 05:52:47;;;;;;;15.40;13.77;;;;;;;33.43;49.12;94530.13;5075014;28;20449;-79
2021/07/01 05:55:14;;;;;;;21.73;14.23;;;;;;;33.65;49.40;94530.53;5075153;28;20476;-80
2021/07/01 05:57:42;;;;;;;18.00;13.43;;;;;;;33.90;49.28;94526.81;5075296;28;20447;-79
2021/07/01 06:00:11;;;;;;;19.03;13.90;;;;;;;34.17;48.90;94529.06;5023609;28;20444;-78
2021/07/01 06:02:38;;;;;;;19.63;16.03;;;;;;;34.27;49.78;94522.69;5075420;28;20445;-78
2021/07/01 06:05:06;;;;;;;24.77;15.57;;;;;;;34.45;50.67;94531.00;5074788;28;20867;-79
2021/07/01 06:07:34;;;;;;;19.53;17.43;;;;;;;34.58;49.38;94534.13;5074880;28;20453;-79
2021/07/01 06:10:05;;;;;;;26.77;16.93;;;;;;;34.51;49.33;94533.66;5075008;28;20533;-79
2021/07/01 06:12:34;;;;;;;22.87;15.87;;;;;;;34.45;49.02;94536.44;5023972;28;20441;-79
2021/07/01 06:15:04;;;;;;;20.83;16.50;;;;;;;34.58;49.71;94543.09;5074987;28;20531;-79
2021/07/01 06:17:33;;;;;;;19.53;14.70;;;;;;;34.65;47.97;94537.31;5023221;28;20437;-79
2021/07/01 06:20:03;;;;;;;20.33;15.07;;;;;;;34.35;49.13;94539.25;5074561;28;20444;-78
2021/07/01 06:22:30;;;;;;;25.17;16.37;;;;;;;34.40;48.63;94531.00;5074936;28;20851;-79
2021/07/01 06:24:57;;;;;;;18.23;14.70;;;;;;;34.26;49.28;94542.84;5074857;28;20483;-79
2021/07/01 06:27:32;;;;;;;21.33;14.30;;;;;;;34.20;49.18;94539.38;5074891;28;20440;-78
2021/07/01 06:30:00;;;;;;;19.73;16.20;;;;;;;33.99;51.74;94536.00;5074380;28;20455;-79
2021/07/01 06:32:28;;;;;;;15.87;14.27;;;;;;;34.04;49.95;94535.13;5074411;28;20936;-78
2021/07/01 06:34:55;;;;;;;21.00;15.17;;;;;;;33.76;48.72;94540.22;5074741;28;20448;-78
2021/07/01 06:37:22;;;;;;;23.67;14.67;;;;;;;34.03;49.10;94544.41;5074148;28;20447;-78
2021/07/01 06:39:51;;;;;;;25.40;16.90;;;;;;;34.16;51.33;94538.31;5074755;28;20527;-79
2021/07/01 06:42:22;;;;;;;24.40;15.30;;;;;;;34.24;50.34;94550.50;5074191;28;20469;-78
2021/07/01 06:44:49;;;;;;;22.83;16.00;;;;;;;34.10;49.33;94532.06;5074403;28;20491;-79
2021/07/01 06:47:18;;;;;;;28.53;18.33;;;;;;;33.61;52.16;94547.69;5074112;28;20432;-79
2021/07/01 06:49:51;;;;;;;31.37;21.10;;;;;;;33.16;54.50;94539.47;5074230;28;21002;-79
2021/07/01 06:52:18;;;;;;;24.50;18.57;;;;;;;32.74;55.30;94539.09;5073920;28;20441;-78
2021/07/01 06:54:47;;;;;;;33.00;21.73;;;;;;;32.57;56.91;94531.25;5073773;28;20483;-79
2021/07/01 06:57:14;;;;;;;28.83;20.10;;;;;;;32.76;57.39;94531.47;5074083;28;20536;-79
2021/07/01 06:59:41;;;;;;;25.90;21.73;;;;;;;32.38;57.91;94528.28;5073726;28;21023;-79
2021/07/01 07:02:09;;;;;;;27.93;20.43;;;;;;;32.58;55.82;94528.25;5074069;28;20444;-79
2021/07/01 07:04:36;;;;;;;26.67;18.40;;;;;;;32.55;57.92;94515.22;5073829;28;20480;-79
2021/07/01 07:07:06;;;;;;;34.80;20.27;;;;;;;32.26;56.57;94519.63;5073918;28;20441;-79
2021/07/01 07:09:34;;;;;;;28.83;19.57;;;;;;;32.40;55.11;94518.00;5073745;28;20433;-79
2021/07/01 07:12:01;;;;;;;26.60;18.97;;;;;;;32.58;57.38;94520.09;5021637;28;20433;-78
2021/07/01 07:14:27;;;;;;;29.83;19.80;;;;;;;32.49;55.66;94518.22;5073874;28;20782;-79
2021/07/01 07:16:58;;;;;;;32.00;19.97;;;;;;;32.56;57.22;94516.03;5073820;28;20924;-79
2021/07/01 07:19:27;;;;;;;23.93;19.10;;;;;;;32.62;55.66;94513.00;5073727;28;20448;-78
2021/07/01 07:21:54;;;;;;;20.57;18.17;;;;;;;32.89;56.24;94509.16;5073336;28;20781;-77
2021/07/01 07:24:28;;;;;;;22.43;18.30;;;;;;;33.05;55.22;94508.00;5073367;28;20467;-78
2021/07/01 07:26:57;;;;;;;31.73;19.90;;;;;;;33.09;54.38;94514.50;5073126;28;20440;-78
2021/07/01 07:29:32;;;;;;;25.60;19.10;;;;;;;33.21;53.60;94514.16;5073216;28;20948;-77
2021/07/01 07:32:00;;;;;;;26.50;20.60;;;;;;;32.87;55.27;94514.06;5073565;28;20479;-79
2021/07/01 07:34:27;;;;;;;25.50;19.07;;;;;;;32.90;53.38;94510.78;5073599;28;20452;-77
2021/07/01 07:36:54;;;;;;;22.33;18.30;;;;;;;33.20;53.58;94505.19;5073174;28;20449;-77
2021/07/01 07:39:27;;;;;;;31.33;19.20;;;;;;;33.12;54.12;94505.78;5073442;28;20444;-77
2021/07/01 07:41:54;;;;;;;28.97;18.93;;;;;;;33.10;53.41;94499.00;5073185;28;20441;-77
2021/07/01 07:44:21;;;;;;;20.10;17.73;;;;;;;33.19;53.11;94500.84;5037956;28;20818;-77
2021/07/01 07:46:48;;;;;;;23.97;17.97;;;;;;;32.87;52.71;94503.19;5073459;28;20452;-78
2021/07/01 07:49:15;;;;;;;32.00;18.67;;;;;;;32.34;53.61;94508.19;5073562;28;20444;-77
2021/07/01 07:51:44;;;;;;;28.73;17.90;;;;;;;32.58;53.85;94502.97;5021937;28;20948;-77
2021/07/01 07:54:12;;;;;;;25.37;17.10;;;;;;;32.69;54.09;94506.50;5073512;28;20477;-77
2021/07/01 07:56:41;;;;;;;69.60;20.60;;;;;;;33.07;52.15;94500.38;5073405;28;20471;-77
2021/07/01 07:59:10;;;;;;;23.23;15.90;;;;;;;33.40;48.86;94498.84;5073074;28;20447;-77
2021/07/01 08:01:40;;;;;;;30.17;16.83;;;;;;;33.80;49.79;94496.91;5073219;28;20441;-77
2021/07/01 08:04:08;;;;;;;20.67;18.40;;;;;;;33.99;50.34;94488.91;5072852;28;20444;-78
2021/07/01 08:06:38;;;;;;;23.70;16.50;;;;;;;34.11;50.78;94495.56;5073038;28;20992;-78
2021/07/01 08:09:06;;;;;;;22.70;17.93;;;;;;;33.48;49.79;94492.78;5020943;28;20498;-79
2021/07/01 08:11:35;;;;;;;29.30;18.60;;;;;;;33.52;50.97;94491.13;5072942;28;20479;-78
2021/07/01 08:14:04;;;;;;;24.93;17.10;;;;;;;33.39;49.71;94490.97;5073333;28;20851;-78
2021/07/01 08:16:31;;;;;;;19.60;16.90;;;;;;;33.25;49.67;94486.13;5073154;28;20453;-78
2021/07/01 08:19:00;;;;;;;17.20;14.77;;;;;;;33.41;50.99;94488.78;5072994;28;20449;-79
2021/07/01 08:21:28;;;;;;;31.57;15.23;;;;;;;33.68;50.53;94480.97;5072854;28;20449;-78
2021/07/01 08:23:55;;;;;;;26.03;14.67;;;;;;;33.90;46.16;94485.19;5072902;28;20445;-78
2021/07/01 08:26:24;;;;;;;15.83;12.37;;;;;;;34.02;44.76;94480.97;5072350;28;20480;-78
2021/07/01 08:28:52;;;;;;;18.43;13.33;;;;;;;33.74;44.39;94487.97;5020634;28;20437;-78
2021/07/01 08:31:20;;;;;;;18.67;13.80;;;;;;;33.79;43.30;94484.41;5072808;28;20452;-78
2021/07/01 08:33:49;;;;;;;22.10;12.63;;;;;;;33.99;44.38;94476.09;5072729;28;20523;-78
2021/07/01 08:36:19;;;;;;;27.20;11.27;;;;;;;34.05;44.34;94474.13;5072724;28;20444;-78
2021/07/01 08:38:46;;;;;;;19.77;12.17;;;;;;;34.05;43.65;94468.69;5072519;28;20455;-79
2021/07/01 08:41:18;;;;;;;27.80;11.37;;;;;;;33.41;41.48;94470.53;5020849;28;20447;-78
2021/07/01 08:43:53;;;;;;;26.93;11.93;;;;;;;33.55;41.72;94471.53;5072580;28;20450;-79
2021/07/01 08:46:26;;;;;;;20.13;11.57;;;;;;;33.89;42.06;94467.22;5072382;28;20484;-78
2021/07/01 08:49:11;;;;;;;18.80;10.20;;;;;;;34.24;40.56;94463.34;5072780;28;20445;-79
2021/07/01 08:51:40;;;;;;;18.43;10.30;;;;;;;34.54;40.25;94465.75;5071771;28;20453;-79
2021/07/01 08:54:33;;;;;;;24.17;11.47;;;;;;;34.37;39.53;94458.03;5073386;28;20483;-78
2021/07/01 08:57:01;;;;;;;19.07;9.20;;;;;;;34.18;39.69;94454.41;4973940;28;20437;-78
2021/07/01 08:59:39;;;;;;;19.47;9.87;;;;;;;34.38;37.88;94448.75;4973994;28;20452;-78
2021/07/01 09:02:10;;;;;;;26.43;10.40;;;;;;;34.29;36.66;94453.19;4974039;28;20448;-78
2021/07/01 09:04:49;;;;;;;27.67;9.73;;;;;;;34.29;37.85;94436.84;4973941;28;20433;-78
2021/07/01 09:07:21;;;;;;;18.87;8.37;;;;;;;34.30;37.37;94437.66;4973833;28;20896;-78
2021/07/01 09:09:54;;;;;;;13.87;7.43;;;;;;;34.34;36.00;94436.81;4973751;28;20508;-78
2021/07/01 09:12:24;;;;;;;25.73;10.23;;;;;;;34.30;35.37;94434.94;4973993;28;20444;-79
2021/07/01 09:14:56;;;;;;;24.93;8.67;;;;;;;34.37;34.32;94432.69;4973715;28;20945;-78
2021/07/01 09:17:27;;;;;;;22.53;8.30;;;;;;;34.19;34.32;94436.97;4973688;28;20449;-79
2021/07/01 09:19:55;;;;;;;15.30;8.13;;;;;;;34.28;36.11;94435.22;4973621;28;20956;-78
2021/07/01 09:22:23;;;;;;;23.60;9.00;;;;;;;34.10;35.06;94435.94;4973878;28;20941;-78
2021/07/01 09:24:51;;;;;;;29.83;10.17;;;;;;;33.78;36.08;94428.31;4973547;28;20445;-79
2021/07/01 09:27:19;;;;;;;20.10;8.40;;;;;;;33.88;35.21;94424.75;4973609;28;20449;-79
2021/07/01 09:29:48;;;;;;;20.63;8.53;;;;;;;34.09;36.30;94435.13;4973663;28;20453;-78
2021/07/01 09:32:20;;;;;;;27.83;10.00;;;;;;;34.27;36.40;94430.88;4973566;28;20825;-78
2021/07/01 09:34:50;;;;;;;22.13;9.17;;;;;;;34.40;35.26;94434.81;5074647;28;20807;-78
2021/07/01 09:37:18;;;;;;;25.53;9.43;;;;;;;34.24;36.56;94426.00;5074753;28;20441;-79
2021/07/01 09:39:48;;;;;;;17.33;8.07;;;;;;;33.93;36.55;94417.34;5022252;28;20444;-78
2021/07/01 09:42:15;;;;;;;20.50;10.37;;;;;;;33.39;35.85;94417.50;5074507;28;20440;-78
2021/07/01 09:44:43;;;;;;;16.73;8.00;;;;;;;33.47;37.74;94414.19;5074453;28;20435;-79
2021/07/01 09:47:12;;;;;;;33.43;9.77;;;;;;;33.50;34.52;94413.59;5074359;28;20496;-79
2021/07/01 09:49:40;;;;;;;22.97;8.60;;;;;;;33.74;35.88;94406.31;5074270;28;20937;-79
2021/07/01 09:52:11;;;;;;;20.83;8.70;;;;;;;33.95;36.10;94396.09;5074322;28;20437;-78
2021/07/01 09:54:39;;;;;;;25.80;9.60;;;;;;;33.95;36.50;94406.16;5074295;28;20473;-78
2021/07/01 09:57:10;;;;;;;24.90;9.20;;;;;;;33.47;35.87;94395.13;5074586;28;20447;-78
2021/07/01 09:59:44;;;;;;;20.63;9.03;;;;;;;33.35;35.16;94400.94;5074179;28;20437;-78
2021/07/01 10:02:17;;;;;;;25.70;9.00;;;;;;;33.40;34.79;94394.66;5074035;28;20498;-78
2021/07/01 10:04:47;;;;;;;21.57;7.80;;;;;;;33.61;37.31;94398.84;5021494;28;20433;-78
2021/07/01 10:07:20;;;;;;;20.50;8.40;;;;;;;33.35;36.69;94397.41;5073949;28;20488;-79
2021/07/01 10:09:50;;;;;;;16.23;7.67;;;;;;;33.37;34.46;94387.06;5074287;28;20455;-78
2021/07/01 10:12:19;;;;;;;39.67;10.20;;;;;;;33.36;36.75;94377.28;5021792;28;20932;-78
2021/07/01 10:14:47;;;;;;;26.37;10.50;;;;;;;33.54;34.98;94379.28;5073866;28;20449;-78
2021/07/01 10:17:16;;;;;;;30.83;8.13;;;;;;;33.63;34.98;94376.78;5074077;28;20827;-78
2021/07/01 10:19:44;;;;;;;21.37;8.80;;;;;;;33.28;36.05;94375.16;5073892;28;20460;-79
2021/07/01 10:22:12;;;;;;;28.67;8.83;;;;;;;33.52;35.30;94368.69;5073907;28;20476;-79
2021/07/01 10:24:52;;;;;;;25.03;9.37;;;;;;;33.69;34.81;94364.72;5073782;28;20487;-79
2021/07/01 10:27:31;;;;;;;21.93;7.83;;;;;;;33.58;35.14;94363.22;5073301;28;20483;-79
2021/07/01 10:29:59;;;;;;;25.63;9.20;;;;;;;33.42;35.82;94348.94;5073373;28;20527;-79
2021/07/01 10:32:37;;;;;;;15.53;8.07;;;;;;;33.39;35.14;94361.19;5073454;28;20437;-78
2021/07/01 10:35:17;;;;;;;16.40;8.70;;;;;;;33.24;37.37;94362.09;5073620;28;20448;-78
2021/07/01 10:37:56;;;;;;;23.87;8.70;;;;;;;33.02;37.98;94355.47;5073409;28;20828;-78
2021/07/01 10:40:25;;;;;;;24.70;9.30;;;;;;;33.31;37.71;94342.78;5073483;28;20448;-78
2021/07/01 10:42:55;;;;;;;27.67;8.63;;;;;;;33.31;36.41;94342.78;5073709;28;20454;-78
2021/07/01 10:45:22;;;;;;;28.63;9.33;;;;;;;33.39;36.52;94338.63;4973654;28;20429;-77
2021/07/01 10:47:49;;;;;;;24.57;8.53;;;;;;;33.63;35.04;94335.94;5073109;28;20445;-78
2021/07/01 10:50:29;;;;;;;24.53;9.40;;;;;;;33.84;34.33;94331.97;5073326;28;20456;-80
2021/07/01 10:52:56;;;;;;;19.30;8.13;;;;;;;33.99;33.31;94320.06;5038411;28;20441;-79
2021/07/01 10:55:25;;;;;;;32.83;9.30;;;;;;;34.14;34.19;94323.44;5021365;28;20452;-78
2021/07/01 10:57:57;;;;;;;16.83;7.90;;;;;;;34.32;37.55;94316.38;5021210;28;20444;-79
2021/07/01 11:00:40;;;;;;;22.77;8.53;;;;;;;34.42;35.06;94319.03;5072853;28;20793;-79
2021/07/01 11:03:12;;;;;;;22.20;9.43;;;;;;;34.30;35.53;94315.88;5073360;28;20447;-78
2021/07/01 11:05:39;;;;;;;17.30;7.00;;;;;;;33.76;33.14;94317.00;5072625;28;20886;-78
2021/07/01 11:08:08;;;;;;;25.87;8.60;;;;;;;33.96;33.80;94301.59;5073069;28;20818;-79
2021/07/01 11:10:39;;;;;;;31.23;9.20;;;;;;;34.15;34.17;94297.81;5072738;28;20449;-79
2021/07/01 11:13:08;;;;;;;21.70;9.23;;;;;;;34.31;34.42;94290.25;5072691;28;20980;-78
2021/07/01 11:15:35;;;;;;;20.87;7.80;;;;;;;34.19;34.49;94292.59;5072228;28;20445;-79
2021/07/01 11:18:09;;;;;;;28.87;7.73;;;;;;;33.88;33.59;94288.63;5072284;28;20440;-79
2021/07/01 11:20:36;;;;;;;21.00;7.60;;;;;;;33.62;33.63;94288.06;5072382;28;20800;-78
2021/07/01 11:23:03;;;;;;;23.53;8.30;;;;;;;33.37;34.50;94286.41;5072458;28;20454;-78
2021/07/01 11:25:34;;;;;;;18.83;7.57;;;;;;;33.51;35.67;94287.34;5072817;28;20709;-78